This is the latest recevied weather packets stored in our database for station/object DB0ADS-6. If no packets are shown the sender has not sent any weather packets the latest 10 day(s).
| Time | Temp. | Humidity | Pressure | Rain* | Wind** | Luminosity | Snow |
|---|---|---|---|---|---|---|---|
| 1777956972 | 13.89° C | 79% | 1007.3 hPa | 0 mm | - | - | - |
| 1777956651 | 13.89° C | 79% | 1007.3 hPa | 0 mm | - | - | - |
| 1777956350 | 13.89° C | 78% | 1007.2 hPa | 0 mm | - | - | - |
| 1777956050 | 13.89° C | 77% | 1007.1 hPa | 0 mm | - | - | - |
| 1777955746 | 13.33° C | 79% | 1007.2 hPa | 0 mm | - | - | - |
| 1777955443 | 13.33° C | 81% | 1007.1 hPa | 0 mm | - | - | - |
| 1777955142 | 13.33° C | 82% | 1007.1 hPa | 0 mm | - | - | - |
| 1777954840 | 13.33° C | 81% | 1007.2 hPa | 0 mm | - | - | - |
| 1777954538 | 12.78° C | 82% | 1007.2 hPa | 0 mm | - | - | - |
| 1777954237 | 12.78° C | 82% | 1007.2 hPa | 0 mm | - | - | - |
| 1777953935 | 13.33° C | 82% | 1007.2 hPa | 0 mm | - | - | - |
| 1777953633 | 12.78° C | 82% | 1007.3 hPa | 0 mm | - | - | - |
| 1777943736 | 13.89° C | 75% | 1008.4 hPa | 0 mm | - | - | - |
| 1777943434 | 13.33° C | 78% | 1008.6 hPa | 0 mm | - | - | - |
| 1777943133 | 13.33° C | 81% | 1008.9 hPa | 0 mm | - | - | - |
| 1777940719 | 13.89° C | 78% | 1009.6 hPa | 0 mm | - | - | - |
| 1777940417 | 13.89° C | 75% | 1009.6 hPa | 0 mm | - | - | - |
| 1777940115 | 13.89° C | 75% | 1009.5 hPa | 0 mm | - | - | - |
| 1777939874 | 13.33° C | 79% | 1009.4 hPa | 0 mm | - | - | - |
| 1777937762 | 15° C | 68% | 1009.8 hPa | 0 mm | - | - | - |
| 1777937460 | 15° C | 67% | 1009.8 hPa | 0 mm | - | - | - |
| 1777928468 | 16.67° C | 60% | 1010.4 hPa | 0 mm | - | - | - |
| 1777927566 | 16.67° C | 59% | 1010.5 hPa | 0 mm | - | - | - |
| 1777926356 | 17.22° C | 58% | 1010.6 hPa | 0 mm | - | - | - |
| 1777926054 | 17.22° C | 58% | 1010.6 hPa | 0 mm | - | - | - |
* Rain latest hour (hover to see other rain measurements)
** Current wind speed in m/s (hover to see current wind gust speed)